Accueil
METAR-TAF:

METAR-TAF

Aéroports :

Knox County Regional Airport

Rockland, Maine, États-Unis

latitude: 44-04N, longitude: 069-06W, altitude: 17 m

Observation

Le bulletin a été fait il y a 17 minutes, à 06:56 UTC
Vent 11 kt de nord/nord-est avec des rafales jusqu'à 19 kt
Température 9°C
Humidité 57%
Pression 1030 hPa
Visibilité: 16.1 km
Ciel clair

METAR: KRKD 240656Z AUTO 02011G19KT 10SM CLR 09/01 A3043 RMK AO2 SLP308 T00890011

Heure: 03:13 (07:13 UTC)

Prévision

Le bulletin a été fait il y a 29 minutes, à 06:44 UTC
Prévision valable du 24 à 07 UTC au 25 à 06 UTC
Vent 10 kt de nord/nord-est avec des rafales jusqu'à 17 kt
Visibilité: 10 km
Nuages épars à une hauteur de 6000 ft
Nuages fragmentés à une hauteur de 12000 ft
A partir de 24 à 1700 UTC
Vent 9 kt de est
Visibilité: 10 km
Ciel clair

TAF: KRKD 240644Z 2407/2506 03010G17KT P6SM SCT060 BKN120 FM241700 10009KT P6SM SKC AMD LTD TO CLD VIS AND WIND

Observations et prévisions météorologiques de plus de 4000 aéroports (messages METAR et TAF).

Les stations disponibles sont représentées par des disques jaunes et rouges sur la carte.

Passer la souris dessus pour voir le nom de la station.

Cliquer dessus pour voir les observations et prévisions météorologiques.

Pour changer de carte: cliquez sur les boutons verts avec une croix noire pour zoomer, sur le bouton vert avec un tiret pour effectuer un zoom arrière, ou sur les flèches vertes pour les cartes adjacentes.


METAR-TAF: